Time;durP1;ratioP1;P1;durP2;ratioP2;P2;SDS_P1;SDS_P2;PMS_P1;PMS_P2;Temp;Humidity;BMP_temperature;BMP_pressure;BME280_temperature;BME280_humidity;BME280_pressure;Samples;Min_cycle;Max_cycle;Signal;HPM_P1;HPM_P2
2023/07/29 00:01:36;;;;;;;6.85;4.43;;;16.40;99.90;;;;;;5111322;28;20528;-71
2023/07/29 00:04:02;;;;;;;7.15;4.93;;;16.40;99.90;;;;;;5112419;28;20027;-71
2023/07/29 00:06:28;;;;;;;6.47;3.88;;;16.40;99.90;;;;;;5112292;28;20027;-69
2023/07/29 00:08:53;;;;;;;7.63;3.78;;;16.50;99.90;;;;;;5112288;28;20460;-71
2023/07/29 00:11:19;;;;;;;7.57;4.47;;;16.50;99.90;;;;;;5113705;28;20073;-71
2023/07/29 00:13:44;;;;;;;5.80;4.18;;;16.60;99.90;;;;;;5113081;28;20024;-71
2023/07/29 00:16:10;;;;;;;7.38;4.50;;;16.60;99.90;;;;;;5094296;28;20464;-71
2023/07/29 00:18:36;;;;;;;6.05;4.70;;;16.60;99.90;;;;;;5111590;28;20058;-70
2023/07/29 00:21:01;;;;;;;4.80;4.03;;;16.60;99.90;;;;;;5090454;28;20060;-70
2023/07/29 00:23:27;;;;;;;5.88;4.25;;;16.60;99.90;;;;;;5092042;28;20024;-71
2023/07/29 00:25:53;;;;;;;4.57;4.18;;;16.60;99.90;;;;;;5091505;28;20032;-70
2023/07/29 00:28:18;;;;;;;4.95;4.00;;;16.60;99.90;;;;;;5073008;28;20389;-70
2023/07/29 00:30:44;;;;;;;4.15;3.65;;;16.60;99.90;;;;;;5071234;28;20031;-70
2023/07/29 00:33:09;;;;;;;6.03;3.40;;;16.60;99.90;;;;;;5072115;28;20032;-71
2023/07/29 00:35:35;;;;;;;4.22;2.88;;;16.70;99.90;;;;;;5071137;28;20489;-70
2023/07/29 00:38:01;;;;;;;3.70;2.50;;;16.70;99.90;;;;;;5074902;28;20036;-70
2023/07/29 00:40:28;;;;;;;3.75;2.45;;;16.70;99.90;;;;;;5075131;28;20379;-70
2023/07/29 00:42:54;;;;;;;2.60;2.40;;;16.70;99.90;;;;;;5074084;28;20404;-72
2023/07/29 00:45:20;;;;;;;4.13;1.98;;;16.80;99.90;;;;;;5075013;28;20116;-71
2023/07/29 00:47:46;;;;;;;2.47;2.10;;;16.80;99.90;;;;;;5074169;28;20376;-70
2023/07/29 00:50:13;;;;;;;2.55;2.10;;;16.80;99.90;;;;;;5074926;28;20074;-70
2023/07/29 00:52:38;;;;;;;3.05;1.90;;;16.80;99.90;;;;;;5074354;28;20029;-70
2023/07/29 00:55:06;;;;;;;2.50;2.10;;;16.80;99.90;;;;;;5076311;28;20033;-71
2023/07/29 00:57:32;;;;;;;3.92;2.92;;;16.80;99.90;;;;;;5075168;28;20033;-69
2023/07/29 00:59:58;;;;;;;3.65;3.00;;;16.80;99.90;;;;;;5074698;28;20103;-71
2023/07/29 01:02:24;;;;;;;4.05;2.75;;;16.90;99.90;;;;;;5074779;28;20133;-71
2023/07/29 01:04:57;;;;;;;5.82;3.08;;;16.90;99.90;;;;;;5073790;28;20961;-71
2023/07/29 01:07:33;;;;;;;2.60;2.40;;;16.80;99.90;;;;;;5074980;28;20481;-71
2023/07/29 01:10:07;;;;;;;4.00;2.75;;;16.80;99.90;;;;;;5074245;28;20034;-72
2023/07/29 01:12:51;;;;;;;3.45;2.67;;;16.70;99.90;;;;;;5074150;28;20028;-69
2023/07/29 01:15:26;;;;;;;5.90;2.78;;;16.70;99.90;;;;;;5074402;28;20066;-71
2023/07/29 01:17:59;;;;;;;3.38;2.92;;;16.70;99.90;;;;;;5073509;28;20097;-71
2023/07/29 01:20:25;;;;;;;7.45;3.15;;;16.60;99.90;;;;;;5082468;28;20052;-70
2023/07/29 01:22:51;;;;;;;4.72;2.58;;;16.70;99.90;;;;;;5093545;28;20588;-71
2023/07/29 01:25:17;;;;;;;4.80;2.97;;;16.70;99.90;;;;;;5094725;28;20024;-71
2023/07/29 01:27:51;;;;;;;3.65;3.25;;;16.70;99.90;;;;;;5121575;27;20098;-71
2023/07/29 01:30:17;;;;;;;3.28;2.97;;;16.60;99.90;;;;;;5135227;27;20066;-70
2023/07/29 01:32:52;;;;;;;4.88;3.13;;;16.70;99.90;;;;;;5134409;27;20042;-71
2023/07/29 01:35:34;;;;;;;3.47;2.63;;;16.70;99.90;;;;;;5133831;27;20479;-71
2023/07/29 01:38:33;;;;;;;4.57;3.33;;;16.70;99.90;;;;;;5134902;27;20023;-71
2023/07/29 01:41:03;;;;;;;2.45;2.25;;;16.70;99.90;;;;;;5134590;27;20027;-71
2023/07/29 01:43:29;;;;;;;;;;;16.70;99.90;;;;;;5135348;27;20027;-71
2023/07/29 01:45:54;;;;;;;3.67;2.70;;;16.70;99.90;;;;;;5133922;27;19955;-70
2023/07/29 01:48:20;;;;;;;6.15;2.53;;;16.70;99.90;;;;;;5133912;27;20030;-70
2023/07/29 01:50:46;;;;;;;4.65;2.92;;;16.70;99.90;;;;;;5134051;27;20050;-70
2023/07/29 01:53:11;;;;;;;3.78;3.13;;;16.80;99.90;;;;;;5134810;27;20015;-71
2023/07/29 01:55:37;;;;;;;3.28;2.72;;;16.80;99.90;;;;;;5133740;27;20039;-69
2023/07/29 01:58:02;;;;;;;4.65;3.40;;;16.80;99.90;;;;;;5134629;27;20105;-70
2023/07/29 02:00:28;;;;;;;3.63;3.33;;;16.80;99.90;;;;;;5134641;27;20098;-71
2023/07/29 02:02:53;;;;;;;5.38;3.65;;;16.80;99.90;;;;;;5133801;27;20015;-72
2023/07/29 02:05:19;;;;;;;5.88;3.50;;;16.80;99.90;;;;;;5116250;27;20035;-71
2023/07/29 02:07:44;;;;;;;7.97;3.17;;;16.80;99.90;;;;;;5133746;27;20026;-70
2023/07/29 02:10:10;;;;;;;4.32;3.10;;;16.80;99.90;;;;;;5134288;27;20027;-71
2023/07/29 02:12:36;;;;;;;4.85;2.67;;;16.80;99.90;;;;;;5134195;27;20054;-70
2023/07/29 02:15:01;;;;;;;3.33;2.67;;;16.90;99.90;;;;;;5133658;27;20107;-71
2023/07/29 02:17:27;;;;;;;7.43;2.63;;;16.80;99.90;;;;;;5134017;27;20455;-71
2023/07/29 02:19:52;;;;;;;3.00;2.67;;;16.80;99.90;;;;;;5133059;27;20058;-71
2023/07/29 02:22:18;;;;;;;4.47;2.65;;;16.70;99.90;;;;;;5134272;27;20034;-70
2023/07/29 02:24:44;;;;;;;4.68;2.55;;;16.70;99.90;;;;;;5133293;27;20028;-71
2023/07/29 02:27:11;;;;;;;5.93;2.75;;;16.70;99.90;;;;;;5124298;27;20354;-71
2023/07/29 02:29:36;;;;;;;5.63;2.40;;;16.60;99.90;;;;;;5113274;28;20024;-69
2023/07/29 02:32:03;;;;;;;3.15;2.40;;;16.60;99.90;;;;;;5113061;28;20024;-70
2023/07/29 02:34:29;;;;;;;3.28;2.42;;;16.50;99.90;;;;;;5113294;28;20028;-71
2023/07/29 02:36:54;;;;;;;3.15;2.85;;;16.50;99.90;;;;;;5112539;28;20375;-70
2023/07/29 02:39:20;;;;;;;5.07;2.67;;;16.50;99.90;;;;;;5113360;28;20103;-70
2023/07/29 02:41:46;;;;;;;4.32;2.85;;;16.50;99.90;;;;;;5112483;28;20104;-69
2023/07/29 02:44:11;;;;;;;2.83;2.53;;;16.50;99.90;;;;;;5113251;28;20387;-71
2023/07/29 02:46:37;;;;;;;4.13;3.25;;;16.50;99.90;;;;;;5113075;28;20059;-69
2023/07/29 02:49:03;;;;;;;2.92;2.63;;;16.50;99.90;;;;;;5112410;28;20066;-70
2023/07/29 02:51:30;;;;;;;3.55;3.10;;;16.50;99.90;;;;;;5112893;28;20499;-70
2023/07/29 02:53:56;;;;;;;3.47;2.92;;;16.40;99.90;;;;;;5112050;28;20426;-70
2023/07/29 02:56:21;;;;;;;3.30;2.83;;;16.50;99.90;;;;;;5113015;28;20055;-71
2023/07/29 02:58:47;;;;;;;5.20;3.00;;;16.50;99.90;;;;;;5112271;28;20020;-70
2023/07/29 03:01:12;;;;;;;3.10;2.63;;;16.50;99.90;;;;;;5112503;28;20031;-70
2023/07/29 03:03:39;;;;;;;5.90;3.10;;;16.50;99.90;;;;;;5112697;28;20049;-69
2023/07/29 03:06:07;;;;;;;3.75;3.17;;;16.40;99.90;;;;;;5112874;28;20489;-71
2023/07/29 03:08:34;;;;;;;3.30;2.65;;;16.50;99.90;;;;;;5112899;28;20110;-71
2023/07/29 03:11:06;;;;;;;5.20;2.90;;;16.40;99.90;;;;;;5112043;28;20023;-69
2023/07/29 03:13:31;;;;;;;5.70;3.22;;;16.40;99.90;;;;;;5113025;28;20426;-70
2023/07/29 03:16:05;;;;;;;3.53;3.17;;;16.40;99.90;;;;;;5111952;28;20032;-69
2023/07/29 03:18:31;;;;;;;4.63;2.97;;;16.40;99.90;;;;;;5112939;28;20027;-71
2023/07/29 03:20:56;;;;;;;4.10;3.00;;;16.40;99.90;;;;;;5111443;28;20047;-69
2023/07/29 03:23:22;;;;;;;3.92;2.78;;;16.40;99.90;;;;;;5112680;28;20187;-71
2023/07/29 03:25:56;;;;;;;3.75;2.92;;;16.40;99.90;;;;;;5112277;28;20031;-70
2023/07/29 03:28:27;;;;;;;5.20;2.65;;;16.40;99.90;;;;;;5132157;27;20029;-70
2023/07/29 03:30:53;;;;;;;3.88;3.13;;;16.40;99.90;;;;;;5132414;28;20019;-69
2023/07/29 03:33:19;;;;;;;6.22;3.25;;;16.40;99.90;;;;;;5133349;28;20023;-71
2023/07/29 03:35:44;;;;;;;4.90;3.15;;;16.40;99.90;;;;;;5132138;28;20031;-69
2023/07/29 03:38:11;;;;;;;8.63;3.00;;;16.40;99.90;;;;;;5133011;28;20030;-70
2023/07/29 03:40:37;;;;;;;3.20;2.90;;;16.40;99.90;;;;;;5132609;27;20027;-70
2023/07/29 03:43:04;;;;;;;4.13;2.80;;;16.40;99.90;;;;;;5132187;28;20094;-70
2023/07/29 03:45:29;;;;;;;2.70;2.50;;;16.50;99.90;;;;;;5133036;28;20487;-71
2023/07/29 03:47:55;;;;;;;3.00;2.70;;;16.50;99.90;;;;;;5132186;28;20393;-69
2023/07/29 03:50:21;;;;;;;4.03;2.72;;;16.50;99.90;;;;;;5132966;28;20016;-71
2023/07/29 03:52:46;;;;;;;4.53;2.80;;;16.50;99.90;;;;;;5132170;28;20027;-69
2023/07/29 03:55:12;;;;;;;3.85;2.35;;;16.60;99.90;;;;;;5132812;28;20063;-71
2023/07/29 03:57:37;;;;;;;6.50;3.00;;;16.60;99.90;;;;;;5132962;28;20030;-71
2023/07/29 04:00:04;;;;;;;2.90;2.42;;;16.70;99.90;;;;;;5132116;28;20023;-70
2023/07/29 04:02:29;;;;;;;4.65;2.80;;;16.70;99.90;;;;;;5132894;28;20027;-71
2023/07/29 04:04:55;;;;;;;4.57;2.55;;;16.70;99.90;;;;;;5132053;28;20460;-71
2023/07/29 04:07:20;;;;;;;3.17;2.20;;;16.70;99.90;;;;;;5132919;28;20174;-71
2023/07/29 04:09:46;;;;;;;3.90;2.90;;;16.60;99.90;;;;;;5131992;28;20034;-71
2023/07/29 04:12:11;;;;;;;4.90;2.53;;;16.60;99.90;;;;;;5134456;27;20341;-70
2023/07/29 04:14:37;;;;;;;3.30;2.42;;;16.60;99.90;;;;;;5136429;27;20042;-70
2023/07/29 04:17:03;;;;;;;4.32;3.15;;;16.60;99.90;;;;;;5135866;27;20034;-70
2023/07/29 04:19:28;;;;;;;3.75;3.13;;;16.60;99.90;;;;;;5136206;27;20076;-70
2023/07/29 04:21:54;;;;;;;6.55;2.92;;;16.60;99.90;;;;;;5135684;27;20024;-70
2023/07/29 04:24:20;;;;;;;6.72;2.85;;;16.60;99.90;;;;;;5136636;27;20357;-70
2023/07/29 04:26:46;;;;;;;3.30;2.70;;;16.60;99.90;;;;;;5129956;27;20027;-69
2023/07/29 04:29:11;;;;;;;5.75;3.22;;;16.60;99.90;;;;;;5115815;28;20024;-70
2023/07/29 04:31:37;;;;;;;4.03;2.83;;;16.60;99.90;;;;;;5116107;28;20073;-70
2023/07/29 04:34:05;;;;;;;3.70;2.88;;;16.60;99.90;;;;;;5115561;28;20028;-71
2023/07/29 04:36:30;;;;;;;4.60;3.20;;;16.60;99.90;;;;;;5117204;28;20061;-71
2023/07/29 04:38:56;;;;;;;5.18;3.08;;;16.60;99.90;;;;;;5116261;28;20024;-70
2023/07/29 04:41:21;;;;;;;4.35;3.50;;;16.60;99.90;;;;;;5118395;28;20019;-72
2023/07/29 04:43:49;;;;;;;3.85;3.30;;;16.60;99.90;;;;;;5120037;28;20019;-69
2023/07/29 04:46:15;;;;;;;4.88;3.22;;;16.60;99.90;;;;;;5119192;28;20059;-71
2023/07/29 04:48:40;;;;;;;5.28;3.22;;;16.60;99.90;;;;;;5116391;28;20100;-70
2023/07/29 04:51:06;;;;;;;3.83;2.80;;;16.60;99.90;;;;;;5114757;28;20019;-71
2023/07/29 04:53:31;;;;;;;4.82;2.90;;;16.60;99.90;;;;;;5115494;28;20464;-70
2023/07/29 04:55:57;;;;;;;3.70;2.97;;;16.60;99.90;;;;;;5114632;28;20035;-71
2023/07/29 04:58:23;;;;;;;5.75;3.03;;;16.60;99.90;;;;;;5115338;28;20468;-71
2023/07/29 05:00:48;;;;;;;4.68;3.08;;;16.60;99.90;;;;;;5114687;28;20028;-70
2023/07/29 05:03:14;;;;;;;7.10;3.58;;;16.60;99.90;;;;;;5115225;28;20456;-71
2023/07/29 05:05:39;;;;;;;6.38;2.83;;;16.70;99.90;;;;;;5115187;28;20027;-71
2023/07/29 05:08:05;;;;;;;4.35;3.17;;;16.70;99.90;;;;;;5114369;28;20719;-71
2023/07/29 05:10:30;;;;;;;4.60;3.20;;;16.70;99.90;;;;;;5115113;28;20028;-70
2023/07/29 05:12:56;;;;;;;5.53;3.35;;;16.70;99.90;;;;;;5114399;28;20063;-70
2023/07/29 05:15:21;;;;;;;5.75;3.42;;;16.70;99.90;;;;;;5114583;28;20118;-70
2023/07/29 05:17:47;;;;;;;7.43;3.67;;;16.80;99.90;;;;;;5114242;28;20019;-69
2023/07/29 05:20:13;;;;;;;8.02;3.70;;;16.80;99.90;;;;;;5114260;28;20442;-71
2023/07/29 05:22:38;;;;;;;5.55;3.33;;;16.90;99.90;;;;;;5114816;28;20028;-71
2023/07/29 05:25:04;;;;;;;5.25;3.30;;;16.90;99.90;;;;;;5113653;28;20388;-70
2023/07/29 05:27:30;;;;;;;6.38;3.13;;;17.00;99.90;;;;;;5127110;27;20019;-70
2023/07/29 05:29:55;;;;;;;3.47;3.03;;;17.00;99.90;;;;;;5134352;27;20087;-71
2023/07/29 05:32:21;;;;;;;4.00;3.38;;;17.00;99.90;;;;;;5135272;27;20027;-70
2023/07/29 05:34:47;;;;;;;6.53;3.63;;;17.10;99.90;;;;;;5134810;27;20030;-69
2023/07/29 05:37:12;;;;;;;3.38;2.83;;;17.10;99.90;;;;;;5134294;27;20023;-70
2023/07/29 05:39:38;;;;;;;4.55;3.17;;;17.10;99.90;;;;;;5134853;27;20027;-70
2023/07/29 05:42:04;;;;;;;5.55;3.42;;;17.10;99.90;;;;;;5134120;27;20102;-69
2023/07/29 05:44:32;;;;;;;5.72;3.05;;;17.20;99.90;;;;;;5135107;27;20023;-70
2023/07/29 05:46:58;;;;;;;4.00;3.15;;;17.30;99.90;;;;;;5133975;27;20027;-69
2023/07/29 05:49:23;;;;;;;4.85;2.95;;;17.30;99.90;;;;;;5134804;27;20023;-70
2023/07/29 05:51:51;;;;;;;3.60;3.05;;;17.30;99.90;;;;;;5134120;27;20357;-69
2023/07/29 05:54:18;;;;;;;4.72;2.95;;;17.40;99.90;;;;;;5134547;27;20431;-70
2023/07/29 05:56:44;;;;;;;4.40;3.05;;;17.50;99.90;;;;;;5134486;27;20035;-70
2023/07/29 05:59:09;;;;;;;6.28;2.70;;;17.60;99.90;;;;;;5133544;27;20577;-70
2023/07/29 06:01:35;;;;;;;4.72;3.10;;;17.70;99.90;;;;;;5134477;27;20055;-70
2023/07/29 06:04:01;;;;;;;4.30;2.95;;;17.80;99.90;;;;;;5133661;27;20030;-69
2023/07/29 06:06:27;;;;;;;7.47;3.30;;;17.80;99.90;;;;;;5134273;27;20028;-70
2023/07/29 06:08:52;;;;;;;8.23;2.90;;;18.00;99.90;;;;;;5133658;27;20115;-69
2023/07/29 06:11:18;;;;;;;4.43;3.20;;;18.10;99.90;;;;;;5134217;27;20053;-70
2023/07/29 06:13:43;;;;;;;4.40;3.42;;;18.30;99.90;;;;;;5134128;27;20023;-70
2023/07/29 06:16:09;;;;;;;4.78;2.95;;;18.40;99.90;;;;;;5133322;27;20031;-70
2023/07/29 06:18:35;;;;;;;3.40;2.70;;;18.40;99.90;;;;;;5127855;27;20384;-70
2023/07/29 06:21:00;;;;;;;5.50;2.80;;;18.50;99.90;;;;;;5112299;28;20040;-70
2023/07/29 06:23:26;;;;;;;4.05;2.80;;;18.50;99.90;;;;;;5113524;28;20035;-70
2023/07/29 06:25:51;;;;;;;4.43;2.67;;;18.60;99.90;;;;;;5113428;28;20031;-69
2023/07/29 06:28:17;;;;;;;4.50;2.40;;;18.70;99.90;;;;;;5131861;27;20464;-70
2023/07/29 06:30:42;;;;;;;2.60;2.35;;;18.70;99.90;;;;;;5134218;27;20039;-70
2023/07/29 06:33:09;;;;;;;5.18;2.38;;;18.80;99.90;;;;;;5132985;27;20025;-70
2023/07/29 06:35:34;;;;;;;3.80;2.63;;;18.90;99.90;;;;;;5133193;27;20046;-70
2023/07/29 06:38:00;;;;;;;4.22;2.67;;;18.90;99.90;;;;;;5132927;27;20431;-70
2023/07/29 06:40:25;;;;;;;4.65;2.80;;;18.90;99.90;;;;;;5133712;27;20019;-70
2023/07/29 06:42:51;;;;;;;2.88;2.20;;;18.90;99.90;;;;;;5133496;27;20046;-69
2023/07/29 06:45:17;;;;;;;5.40;2.83;;;18.90;99.90;;;;;;5133210;27;20026;-70
2023/07/29 06:47:42;;;;;;;4.53;2.50;;;18.80;99.90;;;;;;5133625;27;20065;-70
2023/07/29 06:50:08;;;;;;;5.47;2.80;;;18.80;99.90;;;;;;5132724;27;20023;-70
2023/07/29 06:52:34;;;;;;;3.47;3.00;;;18.70;99.90;;;;;;5133583;27;20527;-70
2023/07/29 06:54:59;;;;;;;2.67;2.42;;;18.80;99.90;;;;;;5133001;27;20486;-69
2023/07/29 06:57:25;;;;;;;5.15;2.38;;;18.80;99.90;;;;;;5133719;27;20482;-70
2023/07/29 06:59:51;;;;;;;4.03;2.20;;;18.80;99.90;;;;;;5133352;27;20028;-70
2023/07/29 07:02:16;;;;;;;6.25;2.70;;;18.80;99.90;;;;;;5132762;27;20054;-70
2023/07/29 07:04:42;;;;;;;3.88;2.38;;;18.80;99.90;;;;;;5133436;27;20030;-70
2023/07/29 07:07:07;;;;;;;3.13;2.13;;;18.80;99.90;;;;;;5132536;27;20023;-69
2023/07/29 07:09:33;;;;;;;5.72;2.42;;;18.70;99.90;;;;;;5133144;27;20066;-70
2023/07/29 07:11:59;;;;;;;3.45;2.20;;;18.60;99.90;;;;;;5132277;27;20051;-69
2023/07/29 07:14:24;;;;;;;4.13;2.35;;;18.50;99.90;;;;;;5133363;27;20027;-70
2023/07/29 07:16:50;;;;;;;3.75;2.10;;;18.40;99.90;;;;;;5133217;27;20067;-71
2023/07/29 07:19:15;;;;;;;2.97;2.28;;;18.40;99.90;;;;;;5132201;27;20023;-71
2023/07/29 07:21:41;;;;;;;2.88;2.20;;;18.30;99.90;;;;;;5131942;28;20146;-71
2023/07/29 07:24:07;;;;;;;4.90;2.35;;;18.30;99.90;;;;;;5131651;28;20061;-69
2023/07/29 07:26:33;;;;;;;1.83;1.70;;;18.20;99.90;;;;;;5128203;28;20034;-71
2023/07/29 07:28:58;;;;;;;2.25;1.85;;;18.20;99.90;;;;;;5111071;28;20111;-69
2023/07/29 07:31:24;;;;;;;3.28;1.77;;;18.20;99.90;;;;;;5111456;28;20020;-70
2023/07/29 07:33:49;;;;;;;1.85;1.45;;;18.20;99.90;;;;;;5112091;28;20029;-70
2023/07/29 07:36:15;;;;;;;2.63;1.70;;;18.20;99.90;;;;;;5110788;28;20609;-71
2023/07/29 07:38:41;;;;;;;3.08;2.00;;;18.20;99.90;;;;;;5111477;28;20387;-71
2023/07/29 07:41:07;;;;;;;2.28;2.08;;;18.30;99.90;;;;;;5110718;28;20024;-70
2023/07/29 07:43:33;;;;;;;3.78;2.00;;;18.40;99.90;;;;;;5111637;28;20081;-70
2023/07/29 07:46:00;;;;;;;2.78;2.17;;;18.40;99.90;;;;;;5110960;28;20039;-69
2023/07/29 07:48:26;;;;;;;5.57;2.72;;;18.50;99.90;;;;;;5114707;28;20495;-70
2023/07/29 07:50:51;;;;;;;4.25;2.30;;;18.60;99.90;;;;;;5115332;28;20024;-70
2023/07/29 07:53:17;;;;;;;5.32;2.00;;;18.60;99.90;;;;;;5114485;28;20072;-70
2023/07/29 07:55:43;;;;;;;3.30;1.92;;;18.70;99.90;;;;;;5115230;28;20495;-70
2023/07/29 07:58:08;;;;;;;2.00;1.73;;;18.70;99.90;;;;;;5114281;28;20020;-70
2023/07/29 08:00:34;;;;;;;2.22;2.10;;;18.80;99.90;;;;;;5115112;28;20519;-70
2023/07/29 08:02:59;;;;;;;2.03;1.80;;;18.80;99.90;;;;;;5114166;28;20032;-69
2023/07/29 08:05:25;;;;;;;4.75;2.20;;;18.80;99.90;;;;;;5114925;28;20036;-70
2023/07/29 08:07:50;;;;;;;2.58;1.80;;;18.90;99.90;;;;;;5114926;28;20434;-70
2023/07/29 08:10:16;;;;;;;1.60;1.40;;;18.90;99.90;;;;;;5114001;28;20487;-70
2023/07/29 08:12:42;;;;;;;2.28;1.70;;;19.10;99.90;;;;;;5115037;28;20066;-71
2023/07/29 08:15:07;;;;;;;3.78;1.38;;;19.20;99.90;;;;;;5113800;28;20035;-70
2023/07/29 08:17:33;;;;;;;1.75;1.30;;;19.30;99.90;;;;;;5114833;28;20032;-70
2023/07/29 08:19:59;;;;;;;2.55;1.55;;;19.40;99.90;;;;;;5074054;28;1135483;-69
2023/07/29 08:22:24;;;;;;;5.28;1.70;;;19.50;99.90;;;;;;5115857;28;20172;-70
2023/07/29 08:24:50;;;;;;;2.05;1.42;;;19.70;99.90;;;;;;5115857;28;20073;-70
2023/07/29 08:27:15;;;;;;;1.70;1.60;;;19.90;99.90;;;;;;5125058;27;20023;-70
2023/07/29 08:29:41;;;;;;;3.35;1.50;;;20.00;99.90;;;;;;5136483;27;20020;-70
2023/07/29 08:32:07;;;;;;;2.83;1.42;;;20.10;99.90;;;;;;5135356;27;20474;-69
2023/07/29 08:34:32;;;;;;;1.10;1.00;;;20.20;99.90;;;;;;5136111;27;20027;-70
2023/07/29 08:36:59;;;;;;;3.20;1.95;;;20.30;99.90;;;;;;5135868;27;20046;-69
2023/07/29 08:39:25;;;;;;;4.32;1.52;;;20.40;99.90;;;;;;5135726;27;20110;-69
2023/07/29 08:42:00;;;;;;;2.45;1.27;;;20.50;99.90;;;;;;5136072;27;20098;-69
2023/07/29 08:44:35;;;;;;;2.15;1.35;;;20.60;99.90;;;;;;5135477;27;20031;-69
2023/07/29 08:47:01;;;;;;;2.40;1.25;;;20.70;99.90;;;;;;5135406;27;20042;-69
2023/07/29 08:49:28;;;;;;;4.53;1.30;;;20.80;99.90;;;;;;5135707;27;20020;-70
2023/07/29 08:51:54;;;;;;;2.90;1.60;;;20.80;99.90;;;;;;5135857;27;20062;-70
2023/07/29 08:54:20;;;;;;;3.25;1.50;;;20.90;99.90;;;;;;5135050;27;20024;-70
2023/07/29 08:56:46;;;;;;;3.17;1.35;;;21.00;99.90;;;;;;5135476;27;20160;-70
2023/07/29 08:59:13;;;;;;;1.58;1.35;;;21.10;99.90;;;;;;5133239;27;20051;-69
2023/07/29 09:01:39;;;;;;;2.60;1.20;;;21.30;99.90;;;;;;5135671;27;20023;-69
2023/07/29 09:04:05;;;;;;;1.88;1.23;;;21.60;99.90;;;;;;5134762;27;20106;-69
2023/07/29 09:06:31;;;;;;;2.13;1.17;;;21.80;99.90;;;;;;5134618;27;20480;-70
2023/07/29 09:08:58;;;;;;;1.10;0.90;;;22.20;99.90;;;;;;5135644;27;20024;-70
2023/07/29 09:11:25;;;;;;;2.28;1.30;;;22.40;99.90;;;;;;5134767;27;20031;-71
2023/07/29 09:13:50;;;;;;;2.22;1.38;;;22.70;99.90;;;;;;5135857;27;20027;-70
2023/07/29 09:16:16;;;;;;;2.65;1.50;;;22.90;99.90;;;;;;5134570;27;20383;-69
2023/07/29 09:18:42;;;;;;;1.80;1.30;;;23.00;99.90;;;;;;5135549;27;20027;-70
2023/07/29 09:21:08;;;;;;;1.35;1.25;;;23.00;99.90;;;;;;5134040;27;20121;-69
2023/07/29 09:23:41;;;;;;;2.45;1.27;;;23.10;99.90;;;;;;5135264;27;20031;-69
2023/07/29 09:26:07;;;;;;;1.98;1.50;;;23.10;99.90;;;;;;5134218;27;20039;-69
2023/07/29 09:28:37;;;;;;;2.38;1.65;;;23.10;99.90;;;;;;5114727;28;20232;-70
2023/07/29 09:31:03;;;;;;;;;;;23.20;99.90;;;;;;5114821;28;20016;-69
2023/07/29 09:33:31;;;;;;;1.67;1.52;;;23.30;99.90;;;;;;5114165;28;19904;-70
2023/07/29 09:35:57;;;;;;;2.08;1.40;;;23.30;99.90;;;;;;5114357;28;20032;-70
2023/07/29 09:38:29;;;;;;;2.95;1.30;;;23.40;99.90;;;;;;5113750;28;20035;-69
2023/07/29 09:40:57;;;;;;;3.42;1.45;;;23.60;99.90;;;;;;5114555;28;20472;-69
2023/07/29 09:43:29;;;;;;;1.52;1.42;;;23.70;99.90;;;;;;5113654;28;20613;-69
2023/07/29 09:45:54;;;;;;;2.67;1.40;;;23.90;99.90;;;;;;5114357;28;20119;-69
2023/07/29 09:48:23;;;;;;;4.10;1.73;;;24.00;99.90;;;;;;5113359;28;20441;-70
2023/07/29 09:50:48;;;;;;;1.60;1.50;;;24.30;99.90;;;;;;5114223;28;20028;-69
2023/07/29 09:53:15;;;;;;;2.33;1.42;;;24.30;99.90;;;;;;5113503;28;20020;-69
2023/07/29 09:55:47;;;;;;;2.25;1.52;;;24.40;99.90;;;;;;5095781;28;20387;-69
2023/07/29 09:58:12;;;;;;;1.73;1.58;;;24.50;99.90;;;;;;5112942;28;20092;-69
2023/07/29 10:00:39;;;;;;;2.60;1.30;;;24.50;99.90;;;;;;5114024;28;20024;-70
2023/07/29 10:03:07;;;;;;;1.88;1.50;;;24.60;99.90;;;;;;5095529;28;20031;-68
2023/07/29 10:05:34;;;;;;;1.30;1.20;;;24.80;99.90;;;;;;5095644;28;20488;-70
2023/07/29 10:08:01;;;;;;;1.65;1.48;;;25.00;99.90;;;;;;5113937;28;20036;-70
2023/07/29 10:10:27;;;;;;;1.38;1.27;;;25.20;99.90;;;;;;5112195;28;20020;-70
2023/07/29 10:12:54;;;;;;;1.77;1.30;;;25.60;99.90;;;;;;5113778;28;20031;-70
2023/07/29 10:15:21;;;;;;;1.30;1.20;;;25.70;99.90;;;;;;5094676;28;20085;-69
2023/07/29 10:17:47;;;;;;;2.65;2.10;;;25.80;99.90;;;;;;5113974;28;20028;-70
2023/07/29 10:20:13;;;;;;;1.35;1.25;;;25.70;99.90;;;;;;5105648;28;20048;-69
2023/07/29 10:22:41;;;;;;;3.15;1.73;;;25.60;99.90;;;;;;5093479;28;20023;-70
2023/07/29 10:25:13;;;;;;;2.55;1.63;;;25.60;99.90;;;;;;5092671;28;20039;-69
2023/07/29 10:27:43;;;;;;;2.10;1.42;;;25.70;99.90;;;;;;5080039;28;20526;-69
2023/07/29 10:30:12;;;;;;;1.70;1.60;;;25.60;99.90;;;;;;5072137;28;20025;-69
2023/07/29 10:32:38;;;;;;;2.10;1.58;;;25.50;99.90;;;;;;5072726;28;20477;-71
2023/07/29 10:35:04;;;;;;;2.33;1.60;;;25.60;99.90;;;;;;5072343;28;20123;-70
2023/07/29 10:37:30;;;;;;;2.70;1.58;;;25.60;99.90;;;;;;5072169;28;20043;-70
2023/07/29 10:39:56;;;;;;;1.60;1.50;;;25.50;99.90;;;;;;5072392;28;20028;-70
2023/07/29 10:42:22;;;;;;;1.35;1.25;;;25.40;99.90;;;;;;5071814;28;20024;-69
2023/07/29 10:44:49;;;;;;;1.67;1.58;;;25.30;99.90;;;;;;5072627;28;20047;-69
2023/07/29 10:47:17;;;;;;;1.85;1.33;;;25.10;99.90;;;;;;5071768;28;20020;-69
2023/07/29 10:49:43;;;;;;;16.48;1.30;;;25.00;99.90;;;;;;5072709;28;20028;-69
2023/07/29 10:52:16;;;;;;;3.00;1.27;;;24.70;99.90;;;;;;5071821;28;20035;-69
2023/07/29 10:54:44;;;;;;;1.45;1.35;;;24.40;99.90;;;;;;5072386;28;20074;-69
2023/07/29 10:57:37;;;;;;;1.45;1.00;;;24.20;99.90;;;;;;5071513;28;20094;-69
2023/07/29 11:00:05;;;;;;;1.38;1.27;;;24.30;99.90;;;;;;5072614;28;20024;-70
2023/07/29 11:02:32;;;;;;;2.13;1.13;;;24.60;99.90;;;;;;5071497;28;20067;-70
2023/07/29 11:04:59;;;;;;;3.42;1.33;;;25.00;99.90;;;;;;5072079;28;20020;-69
2023/07/29 11:07:28;;;;;;;1.08;1.08;;;25.20;99.90;;;;;;5071280;28;20486;-70
2023/07/29 11:09:59;;;;;;;1.92;1.02;;;25.40;99.90;;;;;;5072106;28;20044;-70
2023/07/29 11:12:47;;;;;;;1.38;1.10;;;25.60;99.90;;;;;;5071230;28;20036;-69
2023/07/29 11:15:24;;;;;;;1.20;1.10;;;25.80;99.90;;;;;;5071316;28;20121;-69
2023/07/29 11:17:57;;;;;;;1.20;1.17;;;26.20;99.90;;;;;;5072222;28;20074;-70
2023/07/29 11:20:25;;;;;;;2.03;1.30;;;26.60;99.90;;;;;;5078581;28;20123;-69
2023/07/29 11:22:51;;;;;;;1.52;1.42;;;26.70;99.90;;;;;;5092299;28;20024;-69
2023/07/29 11:25:18;;;;;;;1.17;1.17;;;26.60;99.90;;;;;;5091303;28;20111;-70
2023/07/29 11:27:44;;;;;;;4.07;1.50;;;26.70;99.90;;;;;;5106122;28;20028;-71
2023/07/29 11:30:11;;;;;;;1.13;1.08;;;26.80;99.90;;;;;;5112213;28;20160;-68
2023/07/29 11:32:38;;;;;;;2.90;1.20;;;26.90;99.90;;;;;;5112281;28;20024;-71
2023/07/29 11:35:16;;;;;;;1.65;1.25;;;26.90;99.90;;;;;;5112284;28;20039;-70
2023/07/29 11:37:44;;;;;;;1.35;1.33;;;26.80;99.90;;;;;;5112532;28;20106;-71
2023/07/29 11:40:14;;;;;;;2.35;1.10;;;26.80;99.90;;;;;;5112066;28;20099;-69
2023/07/29 11:42:40;;;;;;;3.20;1.00;;;26.80;99.90;;;;;;5112552;28;20023;-71
2023/07/29 11:45:07;;;;;;;1.25;1.10;;;26.70;99.90;;;;;;5112377;28;20425;-71
2023/07/29 11:47:39;;;;;;;3.47;1.40;;;26.60;99.90;;;;;;5111599;28;20961;-71
2023/07/29 11:50:07;;;;;;;1.52;1.17;;;26.70;99.90;;;;;;5112195;28;20023;-72
2023/07/29 11:52:33;;;;;;;1.42;1.30;;;26.80;99.90;;;;;;5111640;28;20212;-71
2023/07/29 11:55:01;;;;;;;1.88;1.30;;;26.90;99.90;;;;;;5112499;28;20082;-71
2023/07/29 11:57:26;;;;;;;1.23;1.10;;;27.00;99.90;;;;;;5111795;28;20023;-71
2023/07/29 11:59:53;;;;;;;1.40;1.30;;;27.20;99.90;;;;;;5113450;28;20076;-72
2023/07/29 12:02:20;;;;;;;6.70;1.95;;;27.30;99.90;;;;;;5112414;28;20049;-71
2023/07/29 12:04:47;;;;;;;1.55;1.45;;;27.60;99.90;;;;;;5113225;28;20080;-72
2023/07/29 12:07:14;;;;;;;1.35;1.25;;;27.90;99.90;;;;;;5111607;28;20480;-70
2023/07/29 12:09:42;;;;;;;1.20;1.20;;;27.90;99.90;;;;;;5112063;28;20360;-71
2023/07/29 12:12:08;;;;;;;1.20;1.10;;;27.90;99.90;;;;;;5112110;28;20027;-70
2023/07/29 12:14:34;;;;;;;1.45;1.30;;;28.00;99.90;;;;;;5110940;28;20035;-70
2023/07/29 12:17:04;;;;;;;1.48;1.38;;;28.10;99.90;;;;;;5111977;28;20055;-71
2023/07/29 12:19:37;;;;;;;4.32;1.33;;;28.30;99.90;;;;;;5110015;28;20046;-71
2023/07/29 12:22:04;;;;;;;1.30;1.00;;;28.40;99.90;;;;;;5112084;28;20035;-71
2023/07/29 12:24:31;;;;;;;1.20;1.10;;;28.40;99.90;;;;;;5111140;28;20110;-72
2023/07/29 12:26:56;;;;;;;1.55;1.45;;;28.30;99.90;;;;;;5119261;28;20083;-72
2023/07/29 12:29:22;;;;;;;1.70;1.60;;;28.10;99.90;;;;;;5131702;28;20019;-70
2023/07/29 12:31:55;;;;;;;3.30;1.40;;;28.10;99.90;;;;;;5132546;27;20456;-72
2023/07/29 12:34:21;;;;;;;1.70;1.60;;;28.30;99.90;;;;;;5135083;27;20071;-70
2023/07/29 12:36:50;;;;;;;3.38;1.63;;;28.80;99.90;;;;;;5136074;27;20114;-72
2023/07/29 12:39:21;;;;;;;2.67;1.50;;;29.30;99.10;;;;;;5135226;27;20028;-70
2023/07/29 12:41:51;;;;;;;2.78;1.80;;;29.40;98.90;;;;;;5136052;27;20376;-71
2023/07/29 12:44:17;;;;;;;1.70;1.60;;;29.70;98.00;;;;;;5135336;27;20035;-70
2023/07/29 12:46:43;;;;;;;1.35;1.25;;;30.00;96.60;;;;;;5135806;27;20088;-71